Terminal Aerodrome Forecast
Issued by NWS

Home | Current Version | Previous Version | Text Only | Print | Product List | Glossary On
Versions: 1 2 3 4 5 6 7 8 9 10 11 12 13 14 15 16 17 18 19 20 21 22 23 24 25 26 27 28 29 30 31 32 33
000
FTUS46 KLOX 102200 AAB
TAFOXR
TAF AMD
KOXR 102240Z 1023/1118 29008KT P6SM SCT018
     FM110000 27014KT P6SM BKN015
     FM110200 28008KT P6SM OVC012
     FM110500 VRB03KT 6SM BR OVC008=

USA.gov is the U.S. government's official web portal to all federal, state and local government web resources and services.